WSSS

Singapore Changi International Airport

Singapore, Singapore
METAR WSSS 201900Z 31005KT 260V350 8000 FEW018 SCT080 BKN160 25/23 Q1011 NOSIG
Observed Flight Rules
Sep-20 @ 19:00 UTC (14 minutes ago) Marginal Visual Flight Rules
Wind Visibility Clouds
310° at 5 knots 7,998 meters
Temperatures Readings
Current 25°C / 77°F
Dewpoint 23°C / 73°F
Humidity 89%
Altimeter 29.85" Hg
Pressure 1011 hPa
Elevation 16
METAR WSSS 201900Z 31005KT 260V350 8000 FEW018 SCT080 BKN160 25/23 Q1011 NOSIG
Observed Flight Rules
Sep-20 @ 19:00 UTC
(14 minutes ago)
MVFR
Wind Visibility
310° at 5 knots 7,998 meters
Clouds
Temperature Dewpoint
25°C / 77°F 23°C / 73°F
Humidity Altimeter Pressure
89% 29.85" Hg 1011 hPa